createdAt,value
2017-04-24T00:00:06.150Z,78.5
2017-04-24T00:00:47.854Z,79.07
2017-04-24T00:01:28.504Z,78.98
2017-04-24T00:02:09.130Z,78.79
2017-04-24T00:02:49.786Z,78.88
2017-04-24T00:03:30.465Z,78.79
2017-04-24T00:04:11.105Z,79.07
2017-04-24T00:04:51.747Z,78.98
2017-04-24T00:05:32.456Z,78.98
2017-04-24T00:06:13.145Z,78.88
2017-04-24T00:06:53.664Z,78.98
2017-04-24T00:07:34.356Z,78.79
2017-04-24T00:08:15.047Z,78.88
2017-04-24T00:08:55.759Z,78.88
2017-04-24T00:09:36.279Z,78.98
2017-04-24T00:10:16.989Z,79.36
2017-04-24T00:10:57.763Z,79.45
2017-04-24T00:11:38.478Z,79.26
2017-04-24T00:12:19.167Z,79.17
2017-04-24T00:12:59.842Z,79.07
2017-04-24T00:13:40.613Z,79.45
2017-04-24T00:14:21.312Z,79.17
2017-04-24T00:15:01.969Z,79.26
2017-04-24T00:15:42.659Z,79.45
2017-04-24T00:16:23.378Z,79.26
2017-04-24T00:17:04.025Z,79.17
2017-04-24T00:17:44.705Z,79.26
2017-04-24T00:18:25.446Z,79.55
2017-04-24T00:19:06.179Z,79.45
2017-04-24T00:19:46.851Z,79.93
2017-04-24T00:20:27.532Z,79.93
2017-04-24T00:21:08.243Z,80.02
2017-04-24T00:21:48.741Z,80.21
2017-04-24T00:22:29.444Z,80.21
2017-04-24T00:23:10.553Z,79.93
2017-04-24T00:23:51.242Z,80.02
2017-04-24T00:24:31.757Z,79.93
2017-04-24T00:25:12.460Z,79.6
2017-04-24T00:25:53.140Z,79.88
2017-04-24T00:26:33.899Z,79.88
2017-04-24T00:27:14.644Z,79.69
2017-04-24T00:27:55.302Z,79.6
2017-04-24T00:28:36.023Z,79.79
2017-04-24T00:29:16.687Z,79.98
2017-04-24T00:29:57.366Z,80.02
2017-04-24T00:30:38.000Z,79.98
2017-04-24T00:31:18.644Z,79.93
2017-04-24T00:31:59.325Z,80.26
2017-04-24T00:32:40.064Z,79.98
2017-04-24T00:33:20.710Z,80.07
2017-04-24T00:34:01.383Z,79.98
2017-04-24T00:34:42.122Z,79.98
2017-04-24T00:35:22.768Z,80.17
2017-04-24T00:36:03.445Z,80.26
2017-04-24T00:36:44.196Z,80.36
2017-04-24T00:37:24.854Z,80.36
2017-04-24T00:38:05.586Z,80.26
2017-04-24T00:38:46.243Z,80.26
2017-04-24T00:39:26.892Z,80.36
2017-04-24T00:40:07.548Z,80.07
2017-04-24T00:40:48.210Z,80.07
2017-04-24T00:41:28.854Z,79.79
2017-04-24T00:42:09.527Z,79.88
2017-04-24T00:42:50.280Z,80.07
2017-04-24T00:43:30.955Z,80.17
2017-04-24T00:44:11.677Z,80.17
2017-04-24T00:44:52.222Z,80.55
2017-04-24T00:45:32.779Z,80.64
2017-04-24T00:46:13.410Z,80.55
2017-04-24T00:46:53.977Z,80.55
2017-04-24T00:47:34.522Z,80.26
2017-04-24T00:48:15.086Z,80.45
2017-04-24T00:48:55.675Z,80.36
2017-04-24T00:49:36.289Z,80.45
2017-04-24T00:50:16.829Z,80.17
2017-04-24T00:50:57.388Z,80.55
2017-04-24T00:51:37.940Z,80.64
2017-04-24T00:52:18.498Z,81.02
2017-04-24T00:52:59.131Z,81.02
2017-04-24T00:53:39.765Z,81.21
2017-04-24T00:54:20.350Z,80.83
2017-04-24T00:55:00.893Z,80.64
2017-04-24T00:55:41.454Z,80.64
2017-04-24T00:56:21.992Z,80.45
2017-04-24T00:57:02.546Z,80.74
2017-04-24T00:57:43.098Z,80.83
2017-04-24T00:58:23.649Z,80.74
2017-04-24T00:59:04.196Z,80.93
2017-04-24T00:59:44.748Z,80.93
2017-04-24T01:00:25.358Z,81.12
2017-04-24T01:01:05.931Z,80.83
2017-04-24T01:01:46.452Z,80.74
2017-04-24T01:02:27.057Z,80.74
2017-04-24T01:03:07.645Z,81.12
2017-04-24T01:03:48.234Z,81.4
2017-04-24T01:04:28.769Z,81.49
2017-04-24T01:05:09.387Z,81.21
2017-04-24T01:05:49.958Z,81.4
2017-04-24T01:06:30.544Z,81.21
2017-04-24T01:07:11.062Z,81.21
2017-04-24T01:07:51.666Z,81.3
2017-04-24T01:08:32.263Z,81.3
2017-04-24T01:09:12.846Z,81.4
2017-04-24T01:09:53.391Z,81.59
2017-04-24T01:10:33.979Z,81.68
2017-04-24T01:11:14.518Z,81.4
2017-04-24T01:11:55.061Z,81.49
2017-04-24T01:12:35.619Z,81.4
2017-04-24T01:13:16.169Z,81.3
2017-04-24T01:13:56.825Z,81.4
2017-04-24T01:14:37.478Z,81.49
2017-04-24T01:15:18.126Z,81.96
2017-04-24T01:15:58.675Z,81.77
2017-04-24T01:16:39.241Z,81.96
2017-04-24T01:17:19.885Z,81.59
2017-04-24T01:18:00.587Z,81.59
2017-04-24T01:18:41.185Z,81.77
2017-04-24T01:19:21.788Z,81.87
2017-04-24T01:20:02.424Z,81.49
2017-04-24T01:20:42.990Z,81.87
2017-04-24T01:21:23.586Z,81.96
2017-04-24T01:22:04.134Z,81.87
2017-04-24T01:22:44.709Z,81.96
2017-04-24T01:23:25.285Z,81.68
2017-04-24T01:24:06.081Z,81.59
2017-04-24T01:24:46.624Z,81.59
2017-04-24T01:25:27.218Z,81.68
2017-04-24T01:26:07.896Z,81.96
2017-04-24T01:26:48.506Z,82.25
2017-04-24T01:27:29.176Z,82.15
2017-04-24T01:28:09.808Z,81.96
2017-04-24T01:28:50.367Z,82.15
2017-04-24T01:29:31.028Z,82.06
2017-04-24T01:30:11.682Z,81.96
2017-04-24T01:30:52.269Z,82.15
2017-04-24T01:31:32.866Z,82.72
2017-04-24T01:32:13.378Z,82.06
2017-04-24T01:32:53.983Z,82.15
2017-04-24T01:33:34.566Z,81.96
2017-04-24T01:34:15.166Z,81.96
2017-04-24T01:34:55.674Z,82.15
2017-04-24T01:35:36.313Z,81.68
2017-04-24T01:36:16.864Z,81.68
2017-04-24T01:36:57.466Z,82.15
2017-04-24T01:37:37.990Z,82.06
2017-04-24T01:38:18.576Z,82.25
2017-04-24T01:38:59.214Z,82.34
2017-04-24T01:39:39.750Z,82.25
2017-04-24T01:40:20.327Z,82.25
2017-04-24T01:41:00.979Z,82.25
2017-04-24T01:41:41.528Z,82.25
2017-04-24T01:42:22.095Z,82.15
2017-04-24T01:43:02.733Z,82.25
2017-04-24T01:43:43.283Z,82.15
2017-04-24T01:44:23.935Z,82.25
2017-04-24T01:45:04.448Z,81.96
2017-04-24T01:45:45.073Z,82.34
2017-04-24T01:46:25.644Z,82.25
2017-04-24T01:47:06.240Z,82.5
2017-04-24T01:47:46.754Z,82.5
2017-04-24T01:48:27.366Z,82.31
2017-04-24T01:49:07.942Z,82.4
2017-04-24T01:49:48.542Z,82.34
2017-04-24T01:50:29.077Z,82.4
2017-04-24T01:51:09.653Z,82.59
2017-04-24T01:51:50.245Z,82.5
2017-04-24T01:52:30.844Z,82.59
2017-04-24T01:53:11.359Z,82.31
2017-04-24T01:53:52.369Z,82.31
2017-04-24T01:54:32.967Z,82.31
2017-04-24T01:55:13.585Z,82.31
2017-04-24T01:55:54.086Z,82.5
2017-04-24T01:56:34.670Z,82.59
2017-04-24T01:57:15.255Z,82.63
2017-04-24T01:57:56.337Z,82.78
2017-04-24T01:58:36.940Z,82.87
2017-04-24T01:59:17.489Z,83.06
2017-04-24T01:59:58.094Z,82.97
2017-04-24T02:00:38.738Z,82.78
2017-04-24T02:01:19.244Z,82.78
2017-04-24T02:01:59.792Z,82.97
2017-04-24T02:02:40.430Z,82.78
2017-04-24T02:03:20.940Z,83.06
2017-04-24T02:04:01.550Z,83.06
2017-04-24T02:04:42.194Z,82.97
2017-04-24T02:05:22.711Z,82.68
2017-04-24T02:06:03.332Z,82.87
2017-04-24T02:06:43.961Z,82.87
2017-04-24T02:07:24.531Z,83.15
2017-04-24T02:08:05.187Z,83.15
2017-04-24T02:08:45.799Z,83.25
2017-04-24T02:09:26.390Z,82.97
2017-04-24T02:10:07.029Z,83.34
2017-04-24T02:10:47.675Z,83.34
2017-04-24T02:11:28.351Z,83.25
2017-04-24T02:12:09.005Z,82.87
2017-04-24T02:12:49.654Z,83.06
2017-04-24T02:13:30.286Z,83.15
2017-04-24T02:14:10.917Z,83.06
2017-04-24T02:14:52.536Z,82.78
2017-04-24T02:15:33.165Z,82.78
2017-04-24T02:16:15.750Z,82.87
2017-04-24T02:16:56.318Z,83.06
2017-04-24T02:17:36.964Z,82.97
2017-04-24T02:18:17.615Z,83.15
2017-04-24T02:18:58.268Z,83.53
2017-04-24T02:19:38.927Z,83.15
2017-04-24T02:20:19.604Z,83.34
2017-04-24T02:21:00.176Z,82.87
2017-04-24T02:21:40.764Z,82.97
2017-04-24T02:22:21.280Z,83.34
2017-04-24T02:23:01.911Z,83.34
2017-04-24T02:23:42.565Z,83.44
2017-04-24T02:24:23.175Z,83.63
2017-04-24T02:25:03.681Z,83.34
2017-04-24T02:25:44.307Z,83.44
2017-04-24T02:26:24.941Z,83.34
2017-04-24T02:27:05.616Z,83.91
2017-04-24T02:27:46.255Z,84.29
2017-04-24T02:28:26.899Z,84.2
2017-04-24T02:29:07.482Z,83.91
2017-04-24T02:29:48.111Z,83.91
2017-04-24T02:30:28.763Z,84.01
2017-04-24T02:31:09.403Z,83.91
2017-04-24T02:31:49.926Z,83.82
2017-04-24T02:32:30.524Z,83.91
2017-04-24T02:33:11.135Z,84.1
2017-04-24T02:33:51.643Z,84.39
2017-04-24T02:34:33.276Z,84.2
2017-04-24T02:35:13.908Z,84.1
2017-04-24T02:35:54.739Z,84.2
2017-04-24T02:36:36.376Z,84.29
2017-04-24T02:37:16.961Z,84.39
2017-04-24T02:37:58.570Z,84.1
2017-04-24T02:38:39.097Z,83.72
2017-04-24T02:39:19.732Z,83.91
2017-04-24T02:40:00.319Z,84.1
2017-04-24T02:40:40.868Z,84.1
2017-04-24T02:41:21.383Z,83.91
2017-04-24T02:42:01.994Z,84.01
2017-04-24T02:42:42.747Z,84.39
2017-04-24T02:43:23.414Z,84.58
2017-04-24T02:44:04.157Z,84.29
2017-04-24T02:44:44.810Z,84.29
2017-04-24T02:45:25.464Z,84.39
2017-04-24T02:46:06.195Z,84.01
2017-04-24T02:46:46.717Z,84.39
2017-04-24T02:47:27.417Z,84.58
2017-04-24T02:48:07.984Z,84.48
2017-04-24T02:48:48.497Z,84.58
2017-04-24T02:49:29.153Z,84.58
2017-04-24T02:50:09.918Z,84.29
2017-04-24T02:50:50.479Z,84.95
2017-04-24T02:51:31.131Z,84.77
2017-04-24T02:52:11.792Z,84.77
2017-04-24T02:52:52.561Z,85.05
2017-04-24T02:53:33.293Z,84.95
2017-04-24T02:54:13.948Z,84.86
2017-04-24T02:54:54.603Z,84.95
2017-04-24T02:55:35.298Z,84.77
2017-04-24T02:56:15.892Z,84.86
2017-04-24T02:56:56.415Z,84.95
2017-04-24T02:57:37.111Z,84.48
2017-04-24T02:58:17.697Z,84.58
2017-04-24T02:58:58.293Z,84.67
2017-04-24T02:59:38.815Z,84.95
2017-04-24T03:00:19.505Z,84.95
2017-04-24T03:01:00.196Z,84.95
2017-04-24T03:01:40.923Z,84.86
2017-04-24T03:02:21.585Z,84.77
2017-04-24T03:03:02.233Z,84.67
2017-04-24T03:03:42.772Z,84.86
2017-04-24T03:04:23.352Z,84.86
2017-04-24T03:05:04.926Z,85.05
2017-04-24T03:05:46.518Z,84.77
2017-04-24T03:06:27.114Z,84.95
2017-04-24T03:07:07.657Z,84.95
2017-04-24T03:07:48.217Z,85.24
2017-04-24T03:08:28.823Z,85.52
2017-04-24T03:09:09.416Z,85.33
2017-04-24T03:09:49.973Z,85.42
2017-04-24T03:10:30.575Z,85.33
2017-04-24T03:11:11.127Z,85.14
2017-04-24T03:11:51.730Z,85.14
2017-04-24T03:12:32.253Z,85.14
2017-04-24T03:13:12.857Z,85.24
2017-04-24T03:13:53.431Z,85.33
2017-04-24T03:14:34.033Z,85.24
2017-04-24T03:15:14.558Z,85.33
2017-04-24T03:15:55.151Z,85.42
2017-04-24T03:16:35.787Z,85.52
2017-04-24T03:17:16.289Z,84.95
2017-04-24T03:17:56.902Z,85.42
2017-04-24T03:18:37.442Z,85.14
2017-04-24T03:19:17.962Z,85.14
2017-04-24T03:19:58.584Z,85.24
2017-04-24T03:20:39.184Z,85.24
2017-04-24T03:21:21.046Z,85.42
2017-04-24T03:22:01.627Z,85.24
2017-04-24T03:22:42.172Z,84.86
2017-04-24T03:23:22.722Z,85.52
2017-04-24T03:24:03.272Z,85.52
2017-04-24T03:24:43.928Z,85.52
2017-04-24T03:25:24.466Z,85.33
2017-04-24T03:26:05.043Z,85.33
2017-04-24T03:26:45.616Z,85.52
2017-04-24T03:27:26.250Z,85.52
2017-04-24T03:28:06.911Z,85.8
2017-04-24T03:28:47.547Z,85.52
2017-04-24T03:29:28.102Z,85.99
2017-04-24T03:30:08.675Z,85.42
2017-04-24T03:30:49.305Z,85.8
2017-04-24T03:31:29.869Z,86.09
2017-04-24T03:32:10.512Z,85.9
2017-04-24T03:32:51.060Z,85.99
2017-04-24T03:33:31.614Z,85.9
2017-04-24T03:34:12.192Z,85.99
2017-04-24T03:34:52.815Z,85.99
2017-04-24T03:35:33.372Z,85.99
2017-04-24T03:36:13.948Z,85.99
2017-04-24T03:36:54.559Z,85.9
2017-04-24T03:37:35.084Z,85.8
2017-04-24T03:38:15.675Z,85.9
2017-04-24T03:38:57.282Z,85.8
2017-04-24T03:39:37.891Z,85.71
2017-04-24T03:40:18.414Z,85.9
2017-04-24T03:41:00.019Z,85.52
2017-04-24T03:41:40.613Z,85.61
2017-04-24T03:42:21.207Z,85.8
2017-04-24T03:43:01.734Z,85.71
2017-04-24T03:43:44.045Z,85.9
2017-04-24T03:44:24.648Z,85.9
2017-04-24T03:45:05.255Z,85.9
2017-04-24T03:45:45.909Z,85.9
2017-04-24T03:46:26.571Z,85.8
2017-04-24T03:47:07.227Z,86.09
2017-04-24T03:47:52.384Z,85.9
2017-04-24T03:48:33.031Z,85.9
2017-04-24T03:49:13.692Z,86.28
2017-04-24T03:49:54.345Z,85.99
2017-04-24T03:50:34.909Z,85.9
2017-04-24T03:51:15.558Z,85.99
2017-04-24T03:51:56.156Z,85.9
2017-04-24T03:52:36.842Z,85.99
2017-04-24T03:53:17.358Z,85.99
2017-04-24T03:53:57.956Z,86.09
2017-04-24T03:54:38.561Z,86.09
2017-04-24T03:55:19.217Z,86.18
2017-04-24T03:55:59.696Z,86.37
2017-04-24T03:56:40.290Z,86.28
2017-04-24T03:57:20.942Z,86.37
2017-04-24T03:58:01.593Z,86.37
2017-04-24T03:58:42.240Z,86.56
2017-04-24T03:59:22.925Z,86.18
2017-04-24T04:00:03.554Z,86.28
2017-04-24T04:00:44.182Z,86.18
2017-04-24T04:01:24.838Z,86.28
2017-04-24T04:02:05.418Z,86.37
2017-04-24T04:02:46.063Z,86.37
2017-04-24T04:03:26.640Z,86.28
2017-04-24T04:04:07.235Z,86.47
2017-04-24T04:04:47.741Z,86.47
2017-04-24T04:05:28.369Z,86.47
2017-04-24T04:06:08.942Z,86.47
2017-04-24T04:06:49.544Z,86.47
2017-04-24T04:07:30.051Z,86.18
2017-04-24T04:08:10.670Z,86.37
2017-04-24T04:08:51.250Z,86.56
2017-04-24T04:09:31.850Z,86.47
2017-04-24T04:10:12.383Z,86.47
2017-04-24T04:10:52.971Z,86.66
2017-04-24T04:11:33.562Z,86.66
2017-04-24T04:12:14.158Z,86.18
2017-04-24T04:12:55.573Z,86.28
2017-04-24T04:13:36.220Z,86.37
2017-04-24T04:14:16.882Z,86.37
2017-04-24T04:14:57.486Z,86.56
2017-04-24T04:15:38.000Z,86.18
2017-04-24T04:16:18.595Z,86.18
2017-04-24T04:16:59.243Z,86.28
2017-04-24T04:17:39.916Z,86.28
2017-04-24T04:18:20.548Z,86.28
2017-04-24T04:19:01.208Z,86.37
2017-04-24T04:19:41.856Z,86.94
2017-04-24T04:20:22.520Z,87.13
2017-04-24T04:21:03.139Z,87.13
2017-04-24T04:21:43.807Z,87.13
2017-04-24T04:22:24.306Z,86.94
2017-04-24T04:23:04.931Z,87.13
2017-04-24T04:23:45.512Z,87.04
2017-04-24T04:24:26.115Z,86.75
2017-04-24T04:25:06.633Z,86.75
2017-04-24T04:25:47.235Z,86.75
2017-04-24T04:26:27.924Z,87.13
2017-04-24T04:27:08.520Z,86.94
2017-04-24T04:27:49.037Z,86.75
2017-04-24T04:28:29.635Z,86.94
2017-04-24T04:29:10.253Z,86.75
2017-04-24T04:29:51.633Z,86.85
2017-04-24T04:30:32.160Z,86.75
2017-04-24T04:31:12.783Z,86.85
2017-04-24T04:31:53.425Z,87.04
2017-04-24T04:32:33.921Z,86.94
2017-04-24T04:33:14.616Z,86.85
2017-04-24T04:33:55.255Z,86.85
2017-04-24T04:34:35.807Z,86.85
2017-04-24T04:35:16.494Z,86.85
2017-04-24T04:35:57.112Z,86.85
2017-04-24T04:36:37.664Z,86.85
2017-04-24T04:37:18.351Z,86.85
2017-04-24T04:37:58.999Z,86.85
2017-04-24T04:38:39.523Z,86.85
2017-04-24T04:39:20.213Z,86.85
2017-04-24T04:40:00.817Z,86.85
2017-04-24T04:40:41.356Z,86.85
2017-04-24T04:41:21.943Z,86.94
2017-04-24T04:42:02.614Z,86.85
2017-04-24T04:42:43.272Z,86.85
2017-04-24T04:43:23.909Z,86.85
2017-04-24T04:44:04.578Z,86.85
2017-04-24T04:44:45.221Z,86.85
2017-04-24T04:45:25.863Z,86.75
2017-04-24T04:46:06.491Z,86.85
2017-04-24T04:46:47.019Z,87.13
2017-04-24T04:47:27.626Z,86.85
2017-04-24T04:48:08.253Z,87.04
2017-04-24T04:48:48.769Z,86.94
2017-04-24T04:49:29.366Z,86.94
2017-04-24T04:50:10.004Z,86.94
2017-04-24T04:50:50.553Z,86.94
2017-04-24T04:51:31.228Z,86.94
2017-04-24T04:52:11.884Z,86.94
2017-04-24T04:52:52.554Z,87.13
2017-04-24T04:53:33.198Z,86.75
2017-04-24T04:54:13.859Z,86.98
2017-04-24T04:54:54.510Z,86.94
2017-04-24T04:55:35.160Z,86.94
2017-04-24T04:56:15.800Z,86.79
2017-04-24T04:56:56.451Z,87.17
2017-04-24T04:57:37.102Z,87.17
2017-04-24T04:58:17.757Z,87.08
2017-04-24T04:58:58.421Z,87.08
2017-04-24T04:59:39.085Z,86.41
2017-04-24T05:00:19.724Z,86.32
2017-04-24T05:01:00.378Z,86.22
2017-04-24T05:01:41.016Z,86.41
2017-04-24T05:02:21.677Z,86.32
2017-04-24T05:03:02.350Z,86.13
2017-04-24T05:03:42.980Z,86.6
2017-04-24T05:04:23.632Z,86.13
2017-04-24T05:05:04.278Z,86.41
2017-04-24T05:05:44.935Z,86.51
2017-04-24T05:06:25.535Z,86.41
2017-04-24T05:07:06.215Z,86.41
2017-04-24T05:07:46.740Z,86.32
2017-04-24T05:08:27.344Z,86.41
2017-04-24T05:09:07.943Z,86.32
2017-04-24T05:09:48.640Z,86.6
2017-04-24T05:10:29.159Z,86.41
2017-04-24T05:11:09.749Z,86.04
2017-04-24T05:11:50.813Z,86.13
2017-04-24T05:12:31.493Z,86.13
2017-04-24T05:13:12.124Z,86.04
2017-04-24T05:13:52.794Z,86.04
2017-04-24T05:14:33.841Z,85.94
2017-04-24T05:15:14.528Z,86.13
2017-04-24T05:15:56.183Z,85.94
2017-04-24T05:16:36.818Z,86.13
2017-04-24T05:17:17.479Z,85.75
2017-04-24T05:17:58.136Z,85.75
2017-04-24T05:18:38.787Z,85.61
2017-04-24T05:19:19.430Z,85.8
2017-04-24T05:20:00.094Z,85.94
2017-04-24T05:20:40.744Z,86.08
2017-04-24T05:21:21.462Z,86.08
2017-04-24T05:22:02.120Z,85.99
2017-04-24T05:22:42.671Z,85.51
2017-04-24T05:23:23.421Z,85.61
2017-04-24T05:24:04.061Z,85.7
2017-04-24T05:24:45.775Z,85.13
2017-04-24T05:25:26.679Z,85.32
2017-04-24T05:26:07.295Z,85.23
2017-04-24T05:26:47.994Z,85.32
2017-04-24T05:27:28.598Z,85.23
2017-04-24T05:28:09.295Z,85.04
2017-04-24T05:28:50.023Z,84.85
2017-04-24T05:29:31.021Z,84.75
2017-04-24T05:30:11.613Z,85.27
2017-04-24T05:30:52.624Z,84.8
2017-04-24T05:31:33.233Z,84.89
2017-04-24T05:32:16.253Z,84.89
2017-04-24T05:32:57.409Z,84.13
2017-04-24T05:33:38.202Z,84.42
2017-04-24T05:34:19.856Z,84.13
2017-04-24T05:35:00.534Z,84.23
2017-04-24T05:35:43.199Z,84.32
2017-04-24T05:36:24.007Z,84.04
2017-04-24T05:37:04.735Z,84.04
2017-04-24T05:37:46.390Z,84.04
2017-04-24T05:38:27.203Z,84.04
2017-04-24T05:39:08.056Z,84.04
2017-04-24T05:39:57.813Z,83.56
2017-04-24T05:40:38.523Z,83.61
2017-04-24T05:41:19.211Z,83.56
2017-04-24T05:41:59.821Z,83.42
2017-04-24T05:42:40.464Z,83.32
2017-04-24T05:43:21.106Z,83.51
2017-04-24T05:44:01.790Z,83.13
2017-04-24T05:44:42.416Z,83.13
2017-04-24T05:45:23.080Z,83.23
2017-04-24T05:46:03.697Z,83.42
2017-04-24T05:46:44.234Z,83.42
2017-04-24T05:47:25.025Z,83.04
2017-04-24T05:48:05.655Z,82.94
2017-04-24T05:48:46.172Z,82.94
2017-04-24T05:49:26.909Z,82.94
2017-04-24T05:50:07.512Z,83.04
2017-04-24T05:50:48.105Z,82.66
2017-04-24T05:51:29.000Z,82.37
2017-04-24T05:52:09.605Z,82.56
2017-04-24T05:52:50.269Z,82.47
2017-04-24T05:53:30.902Z,82.28
2017-04-24T05:54:11.570Z,82.28
2017-04-24T05:54:52.217Z,82.28
2017-04-24T05:55:32.874Z,82.18
2017-04-24T05:56:13.556Z,82.37
2017-04-24T05:56:54.162Z,82.47
2017-04-24T05:57:35.747Z,82.47
2017-04-24T05:58:16.421Z,82.47
2017-04-24T05:58:57.280Z,82.18
2017-04-24T05:59:37.913Z,82.09
2017-04-24T06:00:18.560Z,82.56
2017-04-24T06:00:59.211Z,82.09
2017-04-24T06:01:39.867Z,81.99
2017-04-24T06:02:20.505Z,82.18
2017-04-24T06:03:01.183Z,82.09
2017-04-24T06:03:41.815Z,82.28
2017-04-24T06:04:22.548Z,82.47
2017-04-24T06:05:03.137Z,81.81
2017-04-24T06:05:43.804Z,81.85
2017-04-24T06:06:24.481Z,82.13
2017-04-24T06:07:05.089Z,81.56
2017-04-24T06:07:45.649Z,81.47
2017-04-24T06:08:26.335Z,81.37
2017-04-24T06:09:08.015Z,80.99
2017-04-24T06:09:48.801Z,80.99
2017-04-24T06:10:29.328Z,81.09
2017-04-24T06:11:09.930Z,80.56
2017-04-24T06:11:50.634Z,80.37
2017-04-24T06:12:31.324Z,80.46
2017-04-24T06:13:11.874Z,80.18
2017-04-24T06:13:52.560Z,79.9
2017-04-24T06:14:33.118Z,80.46
2017-04-24T06:15:13.753Z,79.71
2017-04-24T06:15:54.273Z,79.52
2017-04-24T06:16:34.897Z,79.33
2017-04-24T06:17:16.921Z,79.42
2017-04-24T06:17:57.583Z,79.04
2017-04-24T06:18:38.252Z,79.17
2017-04-24T06:19:18.897Z,79.08
2017-04-24T06:20:00.894Z,78.51
2017-04-24T06:20:41.546Z,78.7
2017-04-24T06:21:22.235Z,78.89
2017-04-24T06:22:02.919Z,78.23
2017-04-24T06:22:43.470Z,78.61
2017-04-24T06:23:24.152Z,78.51
2017-04-24T06:24:04.829Z,79.36
2017-04-24T06:24:45.430Z,78.13
2017-04-24T06:25:25.954Z,78.51
2017-04-24T06:26:06.589Z,78.51
2017-04-24T06:26:47.286Z,77.94
2017-04-24T06:27:27.805Z,78.03
2017-04-24T06:28:08.410Z,78.23
2017-04-24T06:28:49.036Z,78.32
2017-04-24T06:29:29.554Z,77.84
2017-04-24T06:30:10.160Z,77.84
2017-04-24T06:30:50.804Z,77.84
2017-04-24T06:31:31.327Z,77.47
2017-04-24T06:32:11.954Z,77.6
2017-04-24T06:32:52.571Z,77.6
2017-04-24T06:33:33.055Z,77.22
2017-04-24T06:34:14.691Z,77.41
2017-04-24T06:34:55.327Z,77.03
2017-04-24T06:35:35.834Z,77.12
2017-04-24T06:36:16.437Z,77.03
2017-04-24T06:36:57.025Z,76.75
2017-04-24T06:37:37.618Z,76.46
2017-04-24T06:38:18.136Z,75.99
2017-04-24T06:38:58.751Z,76.27
2017-04-24T06:39:39.341Z,75.99
2017-04-24T06:40:20.028Z,76.08
2017-04-24T06:41:00.531Z,76.4
2017-04-24T06:41:41.132Z,75.93
2017-04-24T06:42:21.681Z,75.64
2017-04-24T06:43:02.199Z,75.45
2017-04-24T06:43:42.807Z,75.36
2017-04-24T06:44:23.480Z,75.55
2017-04-24T06:45:04.103Z,75.07
2017-04-24T06:45:44.680Z,74.79
2017-04-24T06:46:25.293Z,74.88
2017-04-24T06:47:05.825Z,74.88
2017-04-24T06:47:46.420Z,74.41
2017-04-24T06:48:27.047Z,74.69
2017-04-24T06:49:07.576Z,74.03
2017-04-24T06:49:48.175Z,73.55
2017-04-24T06:50:28.804Z,73.69
2017-04-24T06:51:09.352Z,73.59
2017-04-24T06:51:50.029Z,73.97
2017-04-24T06:52:30.659Z,73.3
2017-04-24T06:53:11.200Z,72.92
2017-04-24T06:53:51.910Z,72.92
2017-04-24T06:54:32.541Z,72.83
2017-04-24T06:55:13.075Z,72.45
2017-04-24T06:55:53.749Z,72.74
2017-04-24T06:56:34.393Z,72.35
2017-04-24T06:57:15.053Z,72.07
2017-04-24T06:57:55.702Z,72.16
2017-04-24T06:58:36.353Z,72.07
2017-04-24T06:59:17.005Z,72.07
2017-04-24T06:59:57.663Z,71.88
2017-04-24T07:00:38.320Z,71.97
2017-04-24T07:01:18.999Z,71.31
2017-04-24T07:01:59.621Z,71.59
2017-04-24T07:02:41.448Z,71.31
2017-04-24T07:03:23.119Z,71.25
2017-04-24T07:04:03.813Z,71.25
2017-04-24T07:04:44.572Z,71.44
2017-04-24T07:05:25.314Z,70.68
2017-04-24T07:06:05.996Z,70.49
2017-04-24T07:06:47.704Z,70.49
2017-04-24T07:07:28.327Z,70.3
2017-04-24T07:08:09.045Z,70.49
2017-04-24T07:08:49.660Z,70.87
2017-04-24T07:09:30.296Z,70.58
2017-04-24T07:10:10.933Z,69.92
2017-04-24T07:10:51.588Z,70.1
2017-04-24T07:11:32.276Z,70.39
2017-04-24T07:12:13.113Z,69.73
2017-04-24T07:12:53.682Z,70.1
2017-04-24T07:13:34.338Z,69.63
2017-04-24T07:14:14.999Z,69.63
2017-04-24T07:14:55.616Z,69.35
2017-04-24T07:15:36.153Z,69.06
2017-04-24T07:16:16.819Z,69.15
2017-04-24T07:16:57.407Z,69.25
2017-04-24T07:17:39.099Z,69.25
2017-04-24T07:18:19.622Z,69.06
2017-04-24T07:19:02.335Z,68.68
2017-04-24T07:19:42.998Z,68.68
2017-04-24T07:20:24.731Z,68.81
2017-04-24T07:21:05.309Z,68.87
2017-04-24T07:21:45.986Z,68.24
2017-04-24T07:22:26.665Z,68.3
2017-04-24T07:23:08.333Z,68.49
2017-04-24T07:23:48.897Z,68.4
2017-04-24T07:24:29.574Z,68.52
2017-04-24T07:25:10.293Z,68.11
2017-04-24T07:25:50.962Z,67.86
2017-04-24T07:26:31.458Z,67.76
2017-04-24T07:27:12.111Z,67.92
2017-04-24T07:27:52.770Z,67.86
2017-04-24T07:28:33.460Z,67.86
2017-04-24T07:29:13.972Z,67.47
2017-04-24T07:29:54.589Z,67.67
2017-04-24T07:30:35.269Z,67.92
2017-04-24T07:31:15.981Z,67.67
2017-04-24T07:31:56.508Z,67.47
2017-04-24T07:32:37.241Z,67.67
